sensor_id;sensor_type;location;lat;lon;timestamp;pressure;altitude;pressure_sealevel;temperature;humidity
74722;BME280;63470;49.826;6.740;2023-04-29T00:00:56;99972.29;;;11.49;58.76
74722;BME280;63470;49.826;6.740;2023-04-29T00:03:26;99971.80;;;11.47;58.74
74722;BME280;63470;49.826;6.740;2023-04-29T00:05:54;99969.86;;;11.48;58.71
74722;BME280;63470;49.826;6.740;2023-04-29T00:08:22;99964.21;;;11.53;58.59
74722;BME280;63470;49.826;6.740;2023-04-29T00:10:54;99963.65;;;11.62;58.45
74722;BME280;63470;49.826;6.740;2023-04-29T00:13:23;99969.71;;;11.69;58.23
74722;BME280;63470;49.826;6.740;2023-04-29T00:15:56;99969.34;;;11.70;58.08
74722;BME280;63470;49.826;6.740;2023-04-29T00:18:24;99973.98;;;11.66;58.10
74722;BME280;63470;49.826;6.740;2023-04-29T00:20:55;99976.30;;;11.67;58.13
74722;BME280;63470;49.826;6.740;2023-04-29T00:23:25;99976.56;;;11.72;58.11
74722;BME280;63470;49.826;6.740;2023-04-29T00:25:55;99975.05;;;11.77;58.09
74722;BME280;63470;49.826;6.740;2023-04-29T00:28:26;99976.91;;;11.86;58.04
74722;BME280;63470;49.826;6.740;2023-04-29T00:30:57;99974.55;;;11.97;57.95
74722;BME280;63470;49.826;6.740;2023-04-29T00:33:28;99976.38;;;12.09;57.85
74722;BME280;63470;49.826;6.740;2023-04-29T00:35:58;99980.06;;;12.22;57.74
74722;BME280;63470;49.826;6.740;2023-04-29T00:38:28;99981.45;;;12.36;57.61
74722;BME280;63470;49.826;6.740;2023-04-29T00:40:59;99981.45;;;12.48;57.50
74722;BME280;63470;49.826;6.740;2023-04-29T00:43:30;99978.00;;;12.61;57.37
74722;BME280;63470;49.826;6.740;2023-04-29T00:46:00;99982.38;;;12.73;57.27
74722;BME280;63470;49.826;6.740;2023-04-29T00:48:33;99980.27;;;12.83;57.18
74722;BME280;63470;49.826;6.740;2023-04-29T00:51:02;99978.48;;;12.91;57.17
74722;BME280;63470;49.826;6.740;2023-04-29T00:53:33;99983.21;;;12.95;57.17
74722;BME280;63470;49.826;6.740;2023-04-29T00:56:02;99981.23;;;12.99;57.22
74722;BME280;63470;49.826;6.740;2023-04-29T00:58:36;99982.69;;;13.02;57.20
74722;BME280;63470;49.826;6.740;2023-04-29T01:01:03;99986.92;;;13.05;57.24
74722;BME280;63470;49.826;6.740;2023-04-29T01:03:34;99982.38;;;13.08;57.27
74722;BME280;63470;49.826;6.740;2023-04-29T01:06:25;99980.83;;;13.10;57.28
74722;BME280;63470;49.826;6.740;2023-04-29T01:11:10;99985.38;;;13.10;57.32
74722;BME280;63470;49.826;6.740;2023-04-29T01:13:49;99983.72;;;13.10;57.35
74722;BME280;63470;49.826;6.740;2023-04-29T01:16:10;99984.55;;;13.11;57.38
74722;BME280;63470;49.826;6.740;2023-04-29T01:18:45;99990.61;;;13.13;57.39
74722;BME280;63470;49.826;6.740;2023-04-29T01:21:11;99988.41;;;13.14;57.38
74722;BME280;63470;49.826;6.740;2023-04-29T01:23:38;99988.92;;;13.17;57.35
74722;BME280;63470;49.826;6.740;2023-04-29T01:26:09;99993.78;;;13.20;57.33
74722;BME280;63470;49.826;6.740;2023-04-29T01:28:53;99994.54;;;13.22;57.34
74722;BME280;63470;49.826;6.740;2023-04-29T01:33:50;100002.34;;;13.25;57.35
74722;BME280;63470;49.826;6.740;2023-04-29T01:36:32;100005.04;;;13.25;57.33
74722;BME280;63470;49.826;6.740;2023-04-29T01:41:17;100008.31;;;13.24;57.34
74722;BME280;63470;49.826;6.740;2023-04-29T01:43:42;100008.45;;;13.23;57.38
74722;BME280;63470;49.826;6.740;2023-04-29T01:46:15;100009.86;;;13.19;57.49
74722;BME280;63470;49.826;6.740;2023-04-29T01:48:43;100006.99;;;13.16;57.57
74722;BME280;63470;49.826;6.740;2023-04-29T01:51:12;100009.05;;;13.14;57.62
74722;BME280;63470;49.826;6.740;2023-04-29T01:53:46;100003.77;;;13.10;57.72
74722;BME280;63470;49.826;6.740;2023-04-29T01:56:13;100005.06;;;13.09;57.79
74722;BME280;63470;49.826;6.740;2023-04-29T01:58:44;100010.42;;;13.12;57.74
74722;BME280;63470;49.826;6.740;2023-04-29T02:01:18;100008.70;;;13.20;57.57
74722;BME280;63470;49.826;6.740;2023-04-29T02:03:45;100011.48;;;13.26;57.44
74722;BME280;63470;49.826;6.740;2023-04-29T02:06:16;100014.53;;;13.32;57.37
74722;BME280;63470;49.826;6.740;2023-04-29T02:08:48;100014.33;;;13.36;57.31
74722;BME280;63470;49.826;6.740;2023-04-29T02:11:19;100014.12;;;13.40;57.29
74722;BME280;63470;49.826;6.740;2023-04-29T02:13:47;100011.06;;;13.42;57.28
74722;BME280;63470;49.826;6.740;2023-04-29T02:16:22;100010.44;;;13.43;57.27
74722;BME280;63470;49.826;6.740;2023-04-29T02:18:48;100012.72;;;13.39;57.32
74722;BME280;63470;49.826;6.740;2023-04-29T02:21:18;100011.77;;;13.31;57.44
74722;BME280;63470;49.826;6.740;2023-04-29T02:23:48;100009.95;;;13.22;57.58
74722;BME280;63470;49.826;6.740;2023-04-29T02:26:20;100009.38;;;13.14;57.71
74722;BME280;63470;49.826;6.740;2023-04-29T02:28:52;100008.77;;;13.12;57.77
74722;BME280;63470;49.826;6.740;2023-04-29T02:31:19;100009.62;;;13.14;57.74
74722;BME280;63470;49.826;6.740;2023-04-29T02:33:50;100007.23;;;13.16;57.67
74722;BME280;63470;49.826;6.740;2023-04-29T02:36:20;100016.97;;;13.21;57.63
74722;BME280;63470;49.826;6.740;2023-04-29T02:38:53;100013.70;;;13.24;57.59
74722;BME280;63470;49.826;6.740;2023-04-29T02:41:22;100015.50;;;13.27;57.58
74722;BME280;63470;49.826;6.740;2023-04-29T02:43:52;100016.17;;;13.30;57.54
74722;BME280;63470;49.826;6.740;2023-04-29T02:46:23;100012.14;;;13.32;57.52
74722;BME280;63470;49.826;6.740;2023-04-29T02:48:56;100014.15;;;13.33;57.50
74722;BME280;63470;49.826;6.740;2023-04-29T02:51:24;100012.73;;;13.34;57.49
74722;BME280;63470;49.826;6.740;2023-04-29T02:53:55;100017.27;;;13.35;57.49
74722;BME280;63470;49.826;6.740;2023-04-29T02:56:25;100020.22;;;13.36;57.48
74722;BME280;63470;49.826;6.740;2023-04-29T02:58:56;100017.48;;;13.35;57.48
74722;BME280;63470;49.826;6.740;2023-04-29T03:01:26;100014.83;;;13.36;57.45
74722;BME280;63470;49.826;6.740;2023-04-29T03:03:57;100021.86;;;13.36;57.38
74722;BME280;63470;49.826;6.740;2023-04-29T03:06:33;100021.88;;;13.36;57.37
74722;BME280;63470;49.826;6.740;2023-04-29T03:08:58;100025.84;;;13.36;57.40
74722;BME280;63470;49.826;6.740;2023-04-29T03:11:29;100026.02;;;13.35;57.42
74722;BME280;63470;49.826;6.740;2023-04-29T03:14:01;100024.09;;;13.34;57.46
74722;BME280;63470;49.826;6.740;2023-04-29T03:16:31;100027.04;;;13.33;57.48
74722;BME280;63470;49.826;6.740;2023-04-29T03:19:00;100033.77;;;13.32;57.47
74722;BME280;63470;49.826;6.740;2023-04-29T03:21:31;100031.33;;;13.31;57.50
74722;BME280;63470;49.826;6.740;2023-04-29T03:24:01;100032.01;;;13.29;57.52
74722;BME280;63470;49.826;6.740;2023-04-29T03:26:32;100030.48;;;13.28;57.53
74722;BME280;63470;49.826;6.740;2023-04-29T03:29:02;100030.50;;;13.27;57.55
74722;BME280;63470;49.826;6.740;2023-04-29T03:31:33;100029.39;;;13.26;57.54
74722;BME280;63470;49.826;6.740;2023-04-29T03:34:03;100030.67;;;13.25;57.57
74722;BME280;63470;49.826;6.740;2023-04-29T03:36:34;100027.55;;;13.23;57.59
74722;BME280;63470;49.826;6.740;2023-04-29T03:39:04;100030.02;;;13.22;57.62
74722;BME280;63470;49.826;6.740;2023-04-29T03:41:35;100027.92;;;13.20;57.66
74722;BME280;63470;49.826;6.740;2023-04-29T03:44:06;100028.75;;;13.19;57.67
74722;BME280;63470;49.826;6.740;2023-04-29T03:46:36;100028.61;;;13.16;57.70
74722;BME280;63470;49.826;6.740;2023-04-29T03:49:07;100028.66;;;13.15;57.70
74722;BME280;63470;49.826;6.740;2023-04-29T03:51:38;100024.86;;;13.14;57.67
74722;BME280;63470;49.826;6.740;2023-04-29T03:54:10;100028.59;;;13.14;57.68
74722;BME280;63470;49.826;6.740;2023-04-29T03:56:38;100029.91;;;13.11;57.71
74722;BME280;63470;49.826;6.740;2023-04-29T03:59:08;100032.42;;;13.11;57.68
74722;BME280;63470;49.826;6.740;2023-04-29T04:01:39;100031.54;;;13.09;57.68
74722;BME280;63470;49.826;6.740;2023-04-29T04:04:12;100037.34;;;13.07;57.71
74722;BME280;63470;49.826;6.740;2023-04-29T04:06:42;100040.39;;;13.05;57.69
74722;BME280;63470;49.826;6.740;2023-04-29T04:09:11;100043.13;;;13.04;57.68
74722;BME280;63470;49.826;6.740;2023-04-29T04:11:41;100043.45;;;13.03;57.68
74722;BME280;63470;49.826;6.740;2023-04-29T04:14:14;100043.40;;;13.03;57.64
74722;BME280;63470;49.826;6.740;2023-04-29T04:16:46;100046.77;;;13.03;57.62
74722;BME280;63470;49.826;6.740;2023-04-29T04:19:13;100052.69;;;13.02;57.65
74722;BME280;63470;49.826;6.740;2023-04-29T04:21:44;100055.02;;;13.01;57.67
74722;BME280;63470;49.826;6.740;2023-04-29T04:24:14;100059.78;;;13.00;57.68
74722;BME280;63470;49.826;6.740;2023-04-29T04:26:44;100062.27;;;13.00;57.65
74722;BME280;63470;49.826;6.740;2023-04-29T04:29:15;100061.36;;;13.00;57.63
74722;BME280;63470;49.826;6.740;2023-04-29T04:31:46;100063.05;;;13.01;57.62
74722;BME280;63470;49.826;6.740;2023-04-29T04:34:19;100068.69;;;13.01;57.59
74722;BME280;63470;49.826;6.740;2023-04-29T04:36:47;100072.44;;;13.03;57.53
74722;BME280;63470;49.826;6.740;2023-04-29T04:39:20;100081.41;;;13.04;57.51
74722;BME280;63470;49.826;6.740;2023-04-29T04:41:48;100083.25;;;13.06;57.45
74722;BME280;63470;49.826;6.740;2023-04-29T04:44:19;100088.42;;;13.07;57.48
74722;BME280;63470;49.826;6.740;2023-04-29T04:46:50;100093.69;;;13.06;57.50
74722;BME280;63470;49.826;6.740;2023-04-29T04:49:20;100096.12;;;13.07;57.55
74722;BME280;63470;49.826;6.740;2023-04-29T04:51:53;100095.30;;;13.07;57.53
74722;BME280;63470;49.826;6.740;2023-04-29T04:54:21;100100.67;;;13.08;57.49
74722;BME280;63470;49.826;6.740;2023-04-29T04:56:51;100101.58;;;13.09;57.46
74722;BME280;63470;49.826;6.740;2023-04-29T04:59:22;100107.82;;;13.10;57.44
74722;BME280;63470;49.826;6.740;2023-04-29T05:01:52;100115.36;;;13.11;57.47
74722;BME280;63470;49.826;6.740;2023-04-29T05:04:23;100113.28;;;13.11;57.53
74722;BME280;63470;49.826;6.740;2023-04-29T05:06:53;100115.31;;;13.11;57.56
74722;BME280;63470;49.826;6.740;2023-04-29T05:09:26;100118.92;;;13.11;57.58
74722;BME280;63470;49.826;6.740;2023-04-29T05:11:56;100120.23;;;13.11;57.65
74722;BME280;63470;49.826;6.740;2023-04-29T05:14:25;100123.18;;;13.12;57.65
74722;BME280;63470;49.826;6.740;2023-04-29T05:16:58;100122.27;;;13.12;57.60
74722;BME280;63470;49.826;6.740;2023-04-29T05:19:26;100122.84;;;13.13;57.54
74722;BME280;63470;49.826;6.740;2023-04-29T05:21:57;100122.05;;;13.14;57.55
74722;BME280;63470;49.826;6.740;2023-04-29T05:24:32;100125.44;;;13.14;57.60
74722;BME280;63470;49.826;6.740;2023-04-29T05:26:58;100129.41;;;13.15;57.67
74722;BME280;63470;49.826;6.740;2023-04-29T05:29:29;100130.84;;;13.16;57.75
74722;BME280;63470;49.826;6.740;2023-04-29T05:31:59;100143.21;;;13.19;57.77
74722;BME280;63470;49.826;6.740;2023-04-29T05:34:30;100139.97;;;13.21;57.76
74722;BME280;63470;49.826;6.740;2023-04-29T05:37:03;100138.62;;;13.23;57.70
74722;BME280;63470;49.826;6.740;2023-04-29T05:39:30;100142.17;;;13.25;57.67
74722;BME280;63470;49.826;6.740;2023-04-29T05:42:02;100139.28;;;13.28;57.59
74722;BME280;63470;49.826;6.740;2023-04-29T05:44:31;100139.52;;;13.32;57.55
74722;BME280;63470;49.826;6.740;2023-04-29T05:47:02;100145.09;;;13.34;57.49
74722;BME280;63470;49.826;6.740;2023-04-29T05:49:32;100145.91;;;13.35;57.36
74722;BME280;63470;49.826;6.740;2023-04-29T05:52:06;100147.78;;;13.35;57.26
74722;BME280;63470;49.826;6.740;2023-04-29T05:54:34;100150.65;;;13.33;57.27
74722;BME280;63470;49.826;6.740;2023-04-29T05:57:05;100155.51;;;13.32;57.33
74722;BME280;63470;49.826;6.740;2023-04-29T05:59:35;100163.92;;;13.30;57.34
74722;BME280;63470;49.826;6.740;2023-04-29T06:02:05;100163.83;;;13.28;57.41
74722;BME280;63470;49.826;6.740;2023-04-29T06:04:36;100167.94;;;13.26;57.49
74722;BME280;63470;49.826;6.740;2023-04-29T06:07:10;100166.86;;;13.26;57.52
74722;BME280;63470;49.826;6.740;2023-04-29T06:09:37;100169.96;;;13.27;57.49
74722;BME280;63470;49.826;6.740;2023-04-29T06:12:08;100170.20;;;13.29;57.47
74722;BME280;63470;49.826;6.740;2023-04-29T06:14:38;100176.94;;;13.31;57.41
74722;BME280;63470;49.826;6.740;2023-04-29T06:17:09;100182.16;;;13.30;57.34
74722;BME280;63470;49.826;6.740;2023-04-29T06:19:39;100184.30;;;13.28;57.30
74722;BME280;63470;49.826;6.740;2023-04-29T06:22:09;100186.19;;;13.23;57.28
74722;BME280;63470;49.826;6.740;2023-04-29T06:24:42;100184.84;;;13.20;57.33
74722;BME280;63470;49.826;6.740;2023-04-29T06:27:11;100187.42;;;13.19;57.35
74722;BME280;63470;49.826;6.740;2023-04-29T06:29:40;100191.97;;;13.21;57.38
74722;BME280;63470;49.826;6.740;2023-04-29T06:32:13;100194.46;;;13.20;57.36
74722;BME280;63470;49.826;6.740;2023-04-29T06:34:42;100196.70;;;13.20;57.38
74722;BME280;63470;49.826;6.740;2023-04-29T06:37:12;100194.98;;;13.22;57.40
74722;BME280;63470;49.826;6.740;2023-04-29T06:39:43;100200.94;;;13.23;57.41
74722;BME280;63470;49.826;6.740;2023-04-29T06:42:13;100202.54;;;13.25;57.45
74722;BME280;63470;49.826;6.740;2023-04-29T06:44:46;100208.90;;;13.28;57.45
74722;BME280;63470;49.826;6.740;2023-04-29T06:47:18;100210.61;;;13.32;57.46
74722;BME280;63470;49.826;6.740;2023-04-29T06:49:45;100214.50;;;13.39;57.43
74722;BME280;63470;49.826;6.740;2023-04-29T06:52:16;100218.89;;;13.44;57.39
74722;BME280;63470;49.826;6.740;2023-04-29T06:54:47;100219.45;;;13.48;57.37
74722;BME280;63470;49.826;6.740;2023-04-29T06:57:18;100223.98;;;13.52;57.36
74722;BME280;63470;49.826;6.740;2023-04-29T06:59:48;100219.14;;;13.56;57.32
74722;BME280;63470;49.826;6.740;2023-04-29T07:02:18;100223.47;;;13.59;57.23
74722;BME280;63470;49.826;6.740;2023-04-29T07:04:52;100227.89;;;13.61;57.26
74722;BME280;63470;49.826;6.740;2023-04-29T07:07:19;100227.36;;;13.70;57.25
74722;BME280;63470;49.826;6.740;2023-04-29T07:09:53;100226.98;;;13.75;57.09
74722;BME280;63470;49.826;6.740;2023-04-29T07:12:19;100232.23;;;13.77;57.09
74722;BME280;63470;49.826;6.740;2023-04-29T07:14:51;100238.40;;;13.73;57.06
74722;BME280;63470;49.826;6.740;2023-04-29T07:17:20;100245.36;;;13.73;57.14
74722;BME280;63470;49.826;6.740;2023-04-29T07:19:52;100249.67;;;13.73;57.16
74722;BME280;63470;49.826;6.740;2023-04-29T07:22:21;100255.21;;;13.76;57.20
74722;BME280;63470;49.826;6.740;2023-04-29T07:24:52;100254.97;;;13.75;57.17
74722;BME280;63470;49.826;6.740;2023-04-29T07:27:22;100263.83;;;13.71;57.21
74722;BME280;63470;49.826;6.740;2023-04-29T07:29:58;100265.17;;;13.64;57.34
74722;BME280;63470;49.826;6.740;2023-04-29T07:32:24;100266.05;;;13.60;57.49
74722;BME280;63470;49.826;6.740;2023-04-29T07:34:57;100272.31;;;13.58;57.55
74722;BME280;63470;49.826;6.740;2023-04-29T07:37:25;100270.97;;;13.56;57.52
74722;BME280;63470;49.826;6.740;2023-04-29T07:39:55;100274.56;;;13.55;57.54
74722;BME280;63470;49.826;6.740;2023-04-29T07:42:26;100276.39;;;13.61;57.56
74722;BME280;63470;49.826;6.740;2023-04-29T07:44:57;100283.52;;;13.67;57.48
74722;BME280;63470;49.826;6.740;2023-04-29T07:47:27;100280.47;;;13.69;57.41
74722;BME280;63470;49.826;6.740;2023-04-29T07:49:57;100282.61;;;13.72;57.40
74722;BME280;63470;49.826;6.740;2023-04-29T07:52:28;100284.33;;;13.76;57.36
74722;BME280;63470;49.826;6.740;2023-04-29T07:54:58;100280.89;;;13.75;57.27
74722;BME280;63470;49.826;6.740;2023-04-29T07:57:29;100287.65;;;13.76;57.36
74722;BME280;63470;49.826;6.740;2023-04-29T08:00:02;100289.81;;;13.79;57.40
74722;BME280;63470;49.826;6.740;2023-04-29T08:02:29;100293.09;;;13.86;57.36
74722;BME280;63470;49.826;6.740;2023-04-29T08:05:03;100291.65;;;13.93;57.31
74722;BME280;63470;49.826;6.740;2023-04-29T08:07:30;100291.52;;;14.03;57.29
74722;BME280;63470;49.826;6.740;2023-04-29T08:10:00;100286.59;;;14.21;57.12
74722;BME280;63470;49.826;6.740;2023-04-29T08:12:31;100289.91;;;14.41;56.94
74722;BME280;63470;49.826;6.740;2023-04-29T08:15:02;100290.51;;;14.59;56.75
74722;BME280;63470;49.826;6.740;2023-04-29T08:17:32;100296.39;;;14.75;56.56
74722;BME280;63470;49.826;6.740;2023-04-29T08:20:04;100299.69;;;14.91;56.42
74722;BME280;63470;49.826;6.740;2023-04-29T08:22:33;100298.31;;;15.05;56.31
74722;BME280;63470;49.826;6.740;2023-04-29T08:25:06;100300.00;;;15.20;56.25
74722;BME280;63470;49.826;6.740;2023-04-29T08:27:34;100299.06;;;15.33;56.21
74722;BME280;63470;49.826;6.740;2023-04-29T08:30:05;100305.02;;;15.46;56.15
74722;BME280;63470;49.826;6.740;2023-04-29T08:32:35;100309.66;;;15.56;56.13
74722;BME280;63470;49.826;6.740;2023-04-29T08:35:07;100305.09;;;15.58;56.17
74722;BME280;63470;49.826;6.740;2023-04-29T08:37:37;100306.80;;;15.62;56.20
74722;BME280;63470;49.826;6.740;2023-04-29T08:40:08;100305.66;;;15.66;56.15
74722;BME280;63470;49.826;6.740;2023-04-29T08:42:38;100308.69;;;15.62;56.16
74722;BME280;63470;49.826;6.740;2023-04-29T08:45:09;100310.41;;;15.59;56.34
74722;BME280;63470;49.826;6.740;2023-04-29T08:47:39;100317.57;;;15.58;56.34
74722;BME280;63470;49.826;6.740;2023-04-29T08:50:09;100315.37;;;15.52;56.38
74722;BME280;63470;49.826;6.740;2023-04-29T08:52:40;100317.34;;;15.48;56.48
74722;BME280;63470;49.826;6.740;2023-04-29T08:55:10;100317.75;;;15.51;56.53
74722;BME280;63470;49.826;6.740;2023-04-29T08:57:42;100319.56;;;15.59;56.40
74722;BME280;63470;49.826;6.740;2023-04-29T09:00:12;100323.50;;;15.62;56.35
74722;BME280;63470;49.826;6.740;2023-04-29T09:02:50;100326.33;;;15.67;56.33
74722;BME280;63470;49.826;6.740;2023-04-29T09:05:12;100330.51;;;15.69;56.37
74722;BME280;63470;49.826;6.740;2023-04-29T09:07:44;100331.70;;;15.73;56.37
74722;BME280;63470;49.826;6.740;2023-04-29T09:10:14;100330.55;;;15.70;56.27
74722;BME280;63470;49.826;6.740;2023-04-29T09:12:45;100329.95;;;15.56;56.35
74722;BME280;63470;49.826;6.740;2023-04-29T09:15:15;100335.16;;;15.42;56.54
74722;BME280;63470;49.826;6.740;2023-04-29T09:17:47;100337.89;;;15.30;56.62
74722;BME280;63470;49.826;6.740;2023-04-29T09:20:25;100343.95;;;15.21;56.81
74722;BME280;63470;49.826;6.740;2023-04-29T09:22:51;100342.49;;;15.24;56.83
74722;BME280;63470;49.826;6.740;2023-04-29T09:25:17;100342.23;;;15.25;56.77
74722;BME280;63470;49.826;6.740;2023-04-29T09:27:47;100342.39;;;15.30;56.75
74722;BME280;63470;49.826;6.740;2023-04-29T09:30:19;100346.38;;;15.32;56.75
74722;BME280;63470;49.826;6.740;2023-04-29T09:33:07;100348.56;;;15.34;56.80
74722;BME280;63470;49.826;6.740;2023-04-29T09:35:25;100352.91;;;15.33;56.77
74722;BME280;63470;49.826;6.740;2023-04-29T09:37:51;100354.38;;;15.25;56.68
74722;BME280;63470;49.826;6.740;2023-04-29T09:40:34;100355.91;;;15.15;56.88
74722;BME280;63470;49.826;6.740;2023-04-29T09:42:51;100354.07;;;15.13;56.95
74722;BME280;63470;49.826;6.740;2023-04-29T09:45:36;100356.05;;;15.17;56.94
74722;BME280;63470;49.826;6.740;2023-04-29T09:48:01;100360.03;;;15.21;56.89
74722;BME280;63470;49.826;6.740;2023-04-29T09:50:21;100359.41;;;15.28;56.82
74722;BME280;63470;49.826;6.740;2023-04-29T09:52:52;100357.88;;;15.34;56.69
74722;BME280;63470;49.826;6.740;2023-04-29T09:55:22;100359.88;;;15.34;56.61
74722;BME280;63470;49.826;6.740;2023-04-29T09:57:53;100361.86;;;15.31;56.67
74722;BME280;63470;49.826;6.740;2023-04-29T10:00:24;100360.14;;;15.29;56.70
74722;BME280;63470;49.826;6.740;2023-04-29T10:02:57;100359.66;;;15.25;56.77
74722;BME280;63470;49.826;6.740;2023-04-29T10:05:26;100363.03;;;15.21;56.78
74722;BME280;63470;49.826;6.740;2023-04-29T10:07:55;100365.12;;;15.19;56.78
74722;BME280;63470;49.826;6.740;2023-04-29T10:10:26;100361.74;;;15.18;56.73
74722;BME280;63470;49.826;6.740;2023-04-29T10:12:59;100361.73;;;15.25;56.76
74722;BME280;63470;49.826;6.740;2023-04-29T10:15:34;100367.39;;;15.40;56.58
74722;BME280;63470;49.826;6.740;2023-04-29T10:18:17;100372.52;;;15.57;56.44
74722;BME280;63470;49.826;6.740;2023-04-29T10:20:28;100367.06;;;15.70;56.26
74722;BME280;63470;49.826;6.740;2023-04-29T10:23:00;100373.09;;;15.81;56.13
74722;BME280;63470;49.826;6.740;2023-04-29T10:25:29;100375.35;;;15.83;56.11
74722;BME280;63470;49.826;6.740;2023-04-29T10:28:02;100370.14;;;15.87;56.18
74722;BME280;63470;49.826;6.740;2023-04-29T10:30:31;100370.48;;;15.89;56.22
74722;BME280;63470;49.826;6.740;2023-04-29T10:33:02;100370.95;;;15.80;56.28
74722;BME280;63470;49.826;6.740;2023-04-29T10:35:32;100370.97;;;15.68;56.48
74722;BME280;63470;49.826;6.740;2023-04-29T10:38:14;100365.14;;;15.53;56.62
74722;BME280;63470;49.826;6.740;2023-04-29T10:40:41;100366.31;;;15.43;56.73
74722;BME280;63470;49.826;6.740;2023-04-29T10:43:04;100365.69;;;15.34;56.83
74722;BME280;63470;49.826;6.740;2023-04-29T10:45:38;100368.05;;;15.31;56.88
74722;BME280;63470;49.826;6.740;2023-04-29T10:48:12;100368.61;;;15.37;56.89
74722;BME280;63470;49.826;6.740;2023-04-29T10:50:58;100364.93;;;15.50;56.80
74722;BME280;63470;49.826;6.740;2023-04-29T10:53:05;100369.62;;;15.59;56.58
74722;BME280;63470;49.826;6.740;2023-04-29T10:55:37;100369.22;;;15.58;56.49
74722;BME280;63470;49.826;6.740;2023-04-29T10:58:34;100372.83;;;15.60;56.49
74722;BME280;63470;49.826;6.740;2023-04-29T11:00:38;100370.67;;;15.65;56.53
74722;BME280;63470;49.826;6.740;2023-04-29T11:03:12;100373.55;;;15.70;56.53
74722;BME280;63470;49.826;6.740;2023-04-29T11:05:38;100366.29;;;15.71;56.49
74722;BME280;63470;49.826;6.740;2023-04-29T11:08:12;100371.42;;;15.65;56.64
74722;BME280;63470;49.826;6.740;2023-04-29T11:10:42;100373.88;;;15.58;56.73
74722;BME280;63470;49.826;6.740;2023-04-29T11:13:29;100369.36;;;15.45;56.81
74722;BME280;63470;49.826;6.740;2023-04-29T11:15:41;100375.25;;;15.24;56.92
74722;BME280;63470;49.826;6.740;2023-04-29T11:18:11;100382.77;;;15.03;57.16
74722;BME280;63470;49.826;6.740;2023-04-29T11:23:16;100376.73;;;14.70;57.47
74722;BME280;63470;49.826;6.740;2023-04-29T11:25:44;100377.58;;;14.56;57.63
74722;BME280;63470;49.826;6.740;2023-04-29T11:28:14;100380.81;;;14.47;57.72
74722;BME280;63470;49.826;6.740;2023-04-29T11:30:45;100378.92;;;14.41;57.75
74722;BME280;63470;49.826;6.740;2023-04-29T11:33:14;100384.16;;;14.40;57.76
74722;BME280;63470;49.826;6.740;2023-04-29T11:35:45;100386.75;;;14.43;57.74
74722;BME280;63470;49.826;6.740;2023-04-29T11:38:25;100387.59;;;14.45;57.67
74722;BME280;63470;49.826;6.740;2023-04-29T11:40:49;100394.20;;;14.49;57.54
74722;BME280;63470;49.826;6.740;2023-04-29T11:43:18;100392.05;;;14.52;57.50
74722;BME280;63470;49.826;6.740;2023-04-29T11:45:48;100393.66;;;14.59;57.43
74722;BME280;63470;49.826;6.740;2023-04-29T11:48:19;100392.14;;;14.65;57.39
74722;BME280;63470;49.826;6.740;2023-04-29T11:50:52;100394.65;;;14.73;57.28
74722;BME280;63470;49.826;6.740;2023-04-29T11:53:21;100395.71;;;14.79;57.20
74722;BME280;63470;49.826;6.740;2023-04-29T11:55:53;100394.73;;;14.84;57.13
74722;BME280;63470;49.826;6.740;2023-04-29T11:58:21;100395.11;;;14.93;57.06
74722;BME280;63470;49.826;6.740;2023-04-29T12:00:54;100399.02;;;15.04;56.96
74722;BME280;63470;49.826;6.740;2023-04-29T12:03:21;100397.80;;;15.08;56.86
74722;BME280;63470;49.826;6.740;2023-04-29T12:05:52;100402.09;;;15.03;56.82
74722;BME280;63470;49.826;6.740;2023-04-29T12:08:23;100404.44;;;14.98;56.88
74722;BME280;63470;49.826;6.740;2023-04-29T12:10:57;100405.60;;;14.90;56.95
74722;BME280;63470;49.826;6.740;2023-04-29T12:13:26;100412.44;;;14.84;57.04
74722;BME280;63470;49.826;6.740;2023-04-29T12:15:55;100415.85;;;14.78;57.10
74722;BME280;63470;49.826;6.740;2023-04-29T12:18:25;100412.18;;;14.68;57.15
74722;BME280;63470;49.826;6.740;2023-04-29T12:21:01;100416.93;;;14.61;57.24
74722;BME280;63470;49.826;6.740;2023-04-29T12:23:29;100416.83;;;14.59;57.26
74722;BME280;63470;49.826;6.740;2023-04-29T12:25:59;100416.33;;;14.59;57.25
74722;BME280;63470;49.826;6.740;2023-04-29T12:28:29;100416.27;;;14.61;57.24
74722;BME280;63470;49.826;6.740;2023-04-29T12:30:58;100419.41;;;14.67;57.21
74722;BME280;63470;49.826;6.740;2023-04-29T12:33:28;100418.64;;;14.74;57.08
74722;BME280;63470;49.826;6.740;2023-04-29T12:35:58;100422.61;;;14.80;56.99
74722;BME280;63470;49.826;6.740;2023-04-29T12:38:29;100419.15;;;14.82;56.96
74722;BME280;63470;49.826;6.740;2023-04-29T12:40:59;100425.93;;;14.89;56.91
74722;BME280;63470;49.826;6.740;2023-04-29T12:43:30;100426.41;;;14.94;56.84
74722;BME280;63470;49.826;6.740;2023-04-29T12:46:00;100428.97;;;14.97;56.83
74722;BME280;63470;49.826;6.740;2023-04-29T12:48:29;100426.18;;;14.97;56.81
74722;BME280;63470;49.826;6.740;2023-04-29T12:51:00;100431.42;;;14.96;56.81
74722;BME280;63470;49.826;6.740;2023-04-29T12:53:31;100432.98;;;14.99;56.84
74722;BME280;63470;49.826;6.740;2023-04-29T12:56:01;100441.84;;;15.05;56.79
74722;BME280;63470;49.826;6.740;2023-04-29T12:58:33;100442.11;;;15.19;56.74
74722;BME280;63470;49.826;6.740;2023-04-29T13:01:02;100444.69;;;15.26;56.62
74722;BME280;63470;49.826;6.740;2023-04-29T13:03:33;100445.72;;;15.27;56.60
74722;BME280;63470;49.826;6.740;2023-04-29T13:06:04;100449.81;;;15.22;56.65
74722;BME280;63470;49.826;6.740;2023-04-29T13:08:34;100449.31;;;15.14;56.74
74722;BME280;63470;49.826;6.740;2023-04-29T13:11:04;100445.97;;;15.09;56.85
74722;BME280;63470;49.826;6.740;2023-04-29T13:13:34;100442.80;;;15.09;56.87
74722;BME280;63470;49.826;6.740;2023-04-29T13:16:05;100441.97;;;15.09;56.84